createdAt,value
2023-03-11T00:01:23.346Z,7.59
2023-03-11T00:06:26.566Z,7.69
2023-03-11T00:11:29.682Z,7.42
2023-03-11T00:16:32.692Z,7.49
2023-03-11T00:21:35.744Z,7.57
2023-03-11T00:26:38.755Z,7.57
2023-03-11T00:31:41.695Z,7.45
2023-03-11T00:36:44.702Z,7.24
2023-03-11T00:41:47.779Z,7.26
2023-03-11T00:46:50.746Z,7.18
2023-03-11T00:51:53.704Z,7.26
2023-03-11T00:56:56.848Z,7.26
2023-03-11T01:02:00.124Z,7.27
2023-03-11T01:07:03.748Z,7.29
2023-03-11T01:12:06.808Z,7.22
2023-03-11T01:17:10.914Z,6.85
2023-03-11T01:22:14.068Z,6.84
2023-03-11T01:27:17.053Z,6.81
2023-03-11T01:32:20.145Z,6.81
2023-03-11T01:37:23.496Z,7.00
2023-03-11T01:42:26.547Z,6.74
2023-03-11T01:47:38.921Z,6.58
2023-03-11T01:52:44.569Z,6.43
2023-03-11T01:57:48.527Z,6.65
2023-03-11T02:02:54.106Z,6.99
2023-03-11T02:07:58.612Z,6.96
2023-03-11T02:13:06.748Z,7.15
2023-03-11T02:18:12.709Z,7.25
2023-03-11T02:23:19.042Z,7.55
2023-03-11T02:28:23.627Z,7.74
2023-03-11T02:33:30.291Z,7.67
2023-03-11T02:38:33.646Z,7.79
2023-03-11T02:43:44.121Z,7.59
2023-03-11T02:48:49.453Z,7.47
2023-03-11T02:53:57.987Z,7.28
2023-03-11T02:59:02.011Z,7.24
2023-03-11T03:04:06.314Z,7.45
2023-03-11T03:09:10.062Z,7.16
2023-03-11T03:14:13.197Z,7.10
2023-03-11T03:19:16.380Z,7.09
2023-03-11T03:24:19.464Z,7.28
2023-03-11T03:29:22.753Z,7.32
2023-03-11T03:34:26.354Z,7.52
2023-03-11T03:39:30.707Z,7.36
2023-03-11T03:44:34.751Z,7.23
2023-03-11T03:49:38.875Z,7.08
2023-03-11T03:54:42.673Z,7.31
2023-03-11T03:59:45.809Z,7.16
2023-03-11T04:04:49.033Z,7.02
2023-03-11T04:09:52.071Z,7.06
2023-03-11T04:14:55.216Z,6.98
2023-03-11T04:19:59.171Z,7.05
2023-03-11T04:25:03.061Z,7.23
2023-03-11T04:30:09.178Z,7.30
2023-03-11T04:35:12.308Z,7.07
2023-03-11T04:40:16.192Z,6.69
2023-03-11T04:45:19.368Z,6.65
2023-03-11T04:50:24.118Z,6.57
2023-03-11T04:55:27.996Z,6.79
2023-03-11T05:00:31.090Z,6.76
2023-03-11T05:05:40.598Z,7.02
2023-03-11T05:10:44.763Z,7.00
2023-03-11T05:15:49.187Z,6.88
2023-03-11T05:20:53.654Z,7.03
2023-03-11T05:26:00.926Z,7.25
2023-03-11T05:31:09.703Z,7.05
2023-03-11T05:36:17.024Z,6.83
2023-03-11T05:41:21.302Z,6.73
2023-03-11T05:46:24.486Z,6.69
2023-03-11T05:51:28.727Z,6.86
2023-03-11T05:56:31.998Z,6.72
2023-03-11T06:01:35.762Z,6.83
2023-03-11T06:06:41.565Z,6.87
2023-03-11T06:11:45.284Z,6.80
2023-03-11T06:16:50.297Z,6.84
2023-03-11T06:21:55.535Z,6.75
2023-03-11T06:26:58.711Z,6.70
2023-03-11T06:32:04.360Z,6.64
2023-03-11T06:37:07.485Z,7.06
2023-03-11T06:42:11.578Z,7.07
2023-03-11T06:47:14.913Z,7.23
2023-03-11T06:52:18.222Z,7.13
2023-03-11T06:57:21.980Z,7.57
2023-03-11T07:02:27.100Z,7.57
2023-03-11T07:07:30.261Z,7.51
2023-03-11T07:12:33.848Z,8.01
2023-03-11T07:17:37.427Z,8.20
2023-03-11T07:22:40.467Z,8.17
2023-03-11T07:27:43.369Z,8.43
2023-03-11T07:32:46.482Z,8.69
2023-03-11T07:37:49.463Z,8.95
2023-03-11T07:42:52.568Z,9.46
2023-03-11T07:47:57.648Z,9.29
2023-03-11T07:53:00.625Z,9.46
2023-03-11T07:58:03.781Z,9.73
2023-03-11T08:03:06.782Z,9.56
2023-03-11T08:08:10.111Z,9.94
2023-03-11T08:13:13.059Z,9.95
2023-03-11T08:18:17.078Z,10.32
2023-03-11T08:23:20.162Z,10.78
2023-03-11T08:28:23.239Z,10.68
2023-03-11T08:33:26.338Z,11.04
2023-03-11T08:38:29.387Z,10.96
2023-03-11T08:43:32.567Z,10.97
2023-03-11T08:48:38.035Z,10.93
2023-03-11T08:53:41.056Z,11.18
2023-03-11T08:58:44.150Z,11.27
2023-03-11T09:03:47.210Z,11.49
2023-03-11T09:08:50.680Z,11.84
2023-03-11T09:13:53.729Z,12.17
2023-03-11T09:18:56.971Z,12.52
2023-03-11T09:24:00.598Z,12.60
2023-03-11T09:29:03.761Z,12.55
2023-03-11T09:34:06.776Z,12.33
2023-03-11T09:39:10.037Z,12.61
2023-03-11T09:44:20.406Z,12.91
2023-03-11T09:49:38.310Z,12.78
2023-03-11T09:54:45.757Z,12.78
2023-03-11T09:59:49.633Z,12.51
2023-03-11T10:04:57.070Z,12.50
2023-03-11T10:10:00.712Z,12.78
2023-03-11T10:15:49.825Z,12.73
2023-03-11T10:21:32.065Z,12.72
2023-03-11T10:26:44.069Z,12.56
2023-03-11T10:31:59.191Z,12.80
2023-03-11T10:37:20.567Z,12.91
2023-03-11T10:42:28.872Z,12.86
2023-03-11T10:47:31.840Z,12.85
2023-03-11T10:52:45.017Z,12.94
2023-03-11T10:57:48.036Z,12.88
2023-03-11T11:02:53.770Z,13.06
2023-03-11T11:08:14.780Z,13.94
2023-03-11T11:13:21.101Z,13.67
2023-03-11T11:18:29.613Z,13.66
2023-03-11T11:24:02.963Z,13.31
2023-03-11T11:29:10.484Z,13.24
2023-03-11T11:34:32.815Z,13.01
2023-03-11T11:40:11.694Z,13.33
2023-03-11T11:45:59.768Z,13.48
2023-03-11T11:51:15.711Z,13.30
2023-03-11T11:56:18.866Z,13.58
2023-03-11T12:01:49.124Z,13.37
2023-03-11T12:07:14.803Z,13.49
2023-03-11T12:12:48.372Z,13.74
2023-03-11T12:17:55.121Z,13.63
2023-03-11T12:23:12.990Z,13.66
2023-03-11T12:28:16.002Z,13.71
2023-03-11T12:33:30.724Z,13.80
2023-03-11T12:38:36.878Z,13.66
2023-03-11T12:43:42.803Z,13.62
2023-03-11T12:49:06.990Z,13.61
2023-03-11T12:54:32.686Z,13.66
2023-03-11T13:00:18.393Z,13.82
2023-03-11T13:05:39.615Z,13.83
2023-03-11T13:10:53.997Z,13.76
2023-03-11T13:15:57.895Z,13.72
2023-03-11T13:21:02.727Z,13.71
2023-03-11T13:26:28.894Z,13.68
2023-03-11T13:31:43.895Z,13.63
2023-03-11T13:37:03.887Z,13.52
2023-03-11T13:42:32.844Z,13.38
2023-03-11T13:47:37.187Z,13.34
2023-03-11T13:52:47.435Z,13.38
2023-03-11T13:57:53.149Z,13.30
2023-03-11T14:03:00.370Z,13.24
2023-03-11T14:08:24.538Z,13.23
2023-03-11T14:13:30.472Z,13.19
2023-03-11T14:18:35.410Z,13.40
2023-03-11T14:23:44.382Z,13.34
2023-03-11T14:28:51.815Z,13.40
2023-03-11T14:34:04.554Z,13.36
2023-03-11T14:39:36.561Z,12.97
2023-03-11T14:44:43.968Z,13.07
2023-03-11T14:49:49.338Z,12.90
2023-03-11T14:54:54.120Z,12.79
2023-03-11T14:59:58.170Z,12.97
2023-03-11T15:05:08.778Z,12.85
2023-03-11T15:10:12.732Z,12.90
2023-03-11T15:15:23.297Z,12.86
2023-03-11T15:20:40.464Z,12.71
2023-03-11T15:25:50.396Z,12.49
2023-03-11T15:31:16.397Z,12.44
2023-03-11T15:36:34.422Z,12.39
2023-03-11T15:41:37.549Z,12.25
2023-03-11T15:46:40.484Z,12.28
2023-03-11T15:51:43.450Z,12.28
2023-03-11T15:56:46.604Z,12.24
2023-03-11T16:01:49.564Z,12.28
2023-03-11T16:07:07.125Z,12.25
2023-03-11T16:12:23.534Z,12.16
2023-03-11T16:17:28.657Z,12.25
2023-03-11T16:22:38.494Z,12.31
2023-03-11T16:27:42.594Z,12.17
2023-03-11T16:32:45.710Z,12.23
2023-03-11T16:37:49.093Z,12.32
2023-03-11T16:42:56.185Z,12.25
2023-03-11T16:48:00.314Z,11.91
2023-03-11T16:53:03.432Z,11.80
2023-03-11T16:58:06.774Z,11.79
2023-03-11T17:03:14.241Z,11.71
2023-03-11T17:08:18.624Z,11.62
2023-03-11T17:13:21.666Z,11.53
2023-03-11T17:18:24.673Z,11.47
2023-03-11T17:23:27.675Z,11.40
2023-03-11T17:28:30.695Z,11.40
2023-03-11T17:33:34.274Z,11.11
2023-03-11T17:38:37.285Z,11.14
2023-03-11T17:43:40.771Z,11.06
2023-03-11T17:48:45.584Z,10.93
2023-03-11T17:53:49.682Z,10.82
2023-03-11T17:58:52.754Z,10.79
2023-03-11T18:03:56.591Z,10.72
2023-03-11T18:08:59.808Z,10.62
2023-03-11T18:14:02.852Z,10.59
2023-03-11T18:19:06.002Z,10.47
2023-03-11T18:24:09.092Z,10.59
2023-03-11T18:29:12.050Z,10.45
2023-03-11T18:34:15.266Z,10.47
2023-03-11T18:39:18.242Z,10.40
2023-03-11T18:44:21.838Z,10.41
2023-03-11T18:49:24.803Z,10.31
2023-03-11T18:54:28.903Z,10.41
2023-03-11T18:59:32.041Z,10.35
2023-03-11T19:04:35.144Z,10.39
2023-03-11T19:09:38.214Z,10.30
2023-03-11T19:14:41.269Z,10.49
2023-03-11T19:19:44.435Z,10.34
2023-03-11T19:24:47.395Z,10.21
2023-03-11T19:29:50.336Z,10.00
2023-03-11T19:34:53.347Z,9.95
2023-03-11T19:39:56.400Z,9.65
2023-03-11T19:44:59.408Z,9.68
2023-03-11T19:50:02.392Z,9.50
2023-03-11T19:55:07.077Z,9.50
2023-03-11T20:00:10.800Z,9.54
2023-03-11T20:05:13.936Z,9.47
2023-03-11T20:10:17.695Z,9.60
2023-03-11T20:15:20.805Z,9.50
2023-03-11T20:20:24.060Z,9.47
2023-03-11T20:25:29.914Z,9.31
2023-03-11T20:30:33.043Z,9.30
2023-03-11T20:35:36.065Z,9.11
2023-03-11T20:40:39.512Z,9.08
2023-03-11T20:45:42.588Z,9.03
2023-03-11T20:50:45.616Z,9.04
2023-03-11T20:55:48.719Z,8.92
2023-03-11T21:00:51.906Z,8.88
2023-03-11T21:05:55.021Z,8.95
2023-03-11T21:11:01.642Z,8.94
2023-03-11T21:16:06.116Z,8.87
2023-03-11T21:21:10.921Z,8.89
2023-03-11T21:26:15.451Z,8.97
2023-03-11T21:31:25.159Z,9.01
2023-03-11T21:36:29.985Z,8.96
2023-03-11T21:41:33.089Z,9.02
2023-03-11T21:46:36.137Z,8.94
2023-03-11T21:51:39.241Z,8.94
2023-03-11T21:56:42.614Z,8.90
2023-03-11T22:01:45.742Z,8.91
2023-03-11T22:06:48.841Z,8.94
2023-03-11T22:11:51.941Z,8.95
2023-03-11T22:16:55.181Z,8.90
2023-03-11T22:21:58.523Z,8.83
2023-03-11T22:27:01.539Z,8.79
2023-03-11T22:32:04.716Z,8.75
2023-03-11T22:37:08.615Z,8.69
2023-03-11T22:42:12.609Z,8.45
2023-03-11T22:47:15.680Z,8.38
2023-03-11T22:52:18.636Z,8.27
2023-03-11T22:57:21.939Z,8.22
2023-03-11T23:02:24.964Z,8.09
2023-03-11T23:07:27.963Z,8.01
2023-03-11T23:12:30.913Z,7.90
2023-03-11T23:17:34.370Z,7.97
2023-03-11T23:22:38.808Z,7.93
2023-03-11T23:27:43.624Z,7.72
2023-03-11T23:32:46.704Z,7.72
2023-03-11T23:37:50.985Z,7.62
2023-03-11T23:42:54.026Z,7.60
2023-03-11T23:47:57.033Z,7.44
2023-03-11T23:52:59.971Z,7.47
2023-03-11T23:58:02.945Z,7.42
